sensor_id;sensor_type;location;lat;lon;timestamp;temperature;humidity
74224;SHT31;62585;49.706;18.216;2023-05-10T00:00:39;9.50;61.61
74224;SHT31;62585;49.706;18.216;2023-05-10T00:03:10;9.42;62.20
74224;SHT31;62585;49.706;18.216;2023-05-10T00:05:36;9.40;61.74
74224;SHT31;62585;49.706;18.216;2023-05-10T00:08:02;9.40;62.58
74224;SHT31;62585;49.706;18.216;2023-05-10T00:10:28;9.44;62.09
74224;SHT31;62585;49.706;18.216;2023-05-10T00:12:53;9.46;61.12
74224;SHT31;62585;49.706;18.216;2023-05-10T00:15:19;9.57;61.27
74224;SHT31;62585;49.706;18.216;2023-05-10T00:17:45;9.53;61.06
74224;SHT31;62585;49.706;18.216;2023-05-10T00:20:11;9.47;61.63
74224;SHT31;62585;49.706;18.216;2023-05-10T00:22:36;9.47;61.10
74224;SHT31;62585;49.706;18.216;2023-05-10T00:25:02;9.42;61.85
74224;SHT31;62585;49.706;18.216;2023-05-10T00:27:28;9.42;61.60
74224;SHT31;62585;49.706;18.216;2023-05-10T00:29:54;9.46;61.78
74224;SHT31;62585;49.706;18.216;2023-05-10T00:32:20;9.58;60.65
74224;SHT31;62585;49.706;18.216;2023-05-10T00:34:46;9.53;61.28
74224;SHT31;62585;49.706;18.216;2023-05-10T00:37:11;9.43;61.61
74224;SHT31;62585;49.706;18.216;2023-05-10T00:39:37;9.40;61.87
74224;SHT31;62585;49.706;18.216;2023-05-10T00:42:03;9.40;61.91
74224;SHT31;62585;49.706;18.216;2023-05-10T00:44:30;9.35;61.86
74224;SHT31;62585;49.706;18.216;2023-05-10T00:46:56;9.37;61.09
74224;SHT31;62585;49.706;18.216;2023-05-10T00:49:23;9.33;61.89
74224;SHT31;62585;49.706;18.216;2023-05-10T00:51:49;9.39;61.37
74224;SHT31;62585;49.706;18.216;2023-05-10T00:54:15;9.42;61.28
74224;SHT31;62585;49.706;18.216;2023-05-10T00:56:41;9.35;61.58
74224;SHT31;62585;49.706;18.216;2023-05-10T00:59:08;9.37;61.17
74224;SHT31;62585;49.706;18.216;2023-05-10T01:01:35;9.57;59.63
74224;SHT31;62585;49.706;18.216;2023-05-10T01:04:02;9.56;60.94
74224;SHT31;62585;49.706;18.216;2023-05-10T01:06:28;9.54;60.60
74224;SHT31;62585;49.706;18.216;2023-05-10T01:08:54;9.54;60.45
74224;SHT31;62585;49.706;18.216;2023-05-10T01:11:21;9.50;60.88
74224;SHT31;62585;49.706;18.216;2023-05-10T01:13:53;9.46;60.89
74224;SHT31;62585;49.706;18.216;2023-05-10T01:16:21;9.35;61.05
74224;SHT31;62585;49.706;18.216;2023-05-10T01:18:48;9.37;60.78
74224;SHT31;62585;49.706;18.216;2023-05-10T01:32:27;9.61;59.40
74224;SHT31;62585;49.706;18.216;2023-05-10T01:35:06;9.51;60.77
74224;SHT31;62585;49.706;18.216;2023-05-10T01:37:46;9.50;60.20
74224;SHT31;62585;49.706;18.216;2023-05-10T01:40:29;9.47;60.24
74224;SHT31;62585;49.706;18.216;2023-05-10T01:43:05;9.53;60.24
74224;SHT31;62585;49.706;18.216;2023-05-10T01:45:37;9.40;60.82
74224;SHT31;62585;49.706;18.216;2023-05-10T01:48:10;9.35;61.32
74224;SHT31;62585;49.706;18.216;2023-05-10T01:50:39;9.23;61.58
74224;SHT31;62585;49.706;18.216;2023-05-10T01:53:09;9.30;61.31
74224;SHT31;62585;49.706;18.216;2023-05-10T01:55:43;9.35;60.82
74224;SHT31;62585;49.706;18.216;2023-05-10T01:58:15;9.20;61.93
74224;SHT31;62585;49.706;18.216;2023-05-10T02:00:45;9.30;61.04
74224;SHT31;62585;49.706;18.216;2023-05-10T02:03:13;9.26;61.19
74224;SHT31;62585;49.706;18.216;2023-05-10T02:05:41;9.25;61.65
74224;SHT31;62585;49.706;18.216;2023-05-10T02:08:09;9.16;62.37
74224;SHT31;62585;49.706;18.216;2023-05-10T02:13:11;9.19;62.01
74224;SHT31;62585;49.706;18.216;2023-05-10T02:15:38;9.25;61.57
74224;SHT31;62585;49.706;18.216;2023-05-10T02:18:06;9.25;62.25
74224;SHT31;62585;49.706;18.216;2023-05-10T02:20:33;9.15;62.14
74224;SHT31;62585;49.706;18.216;2023-05-10T02:22:59;9.07;62.50
74224;SHT31;62585;49.706;18.216;2023-05-10T02:25:25;9.18;62.54
74224;SHT31;62585;49.706;18.216;2023-05-10T02:27:55;9.05;62.90
74224;SHT31;62585;49.706;18.216;2023-05-10T02:30:22;8.98;63.48
74224;SHT31;62585;49.706;18.216;2023-05-10T02:32:49;9.01;63.37
74224;SHT31;62585;49.706;18.216;2023-05-10T02:35:16;8.91;63.53
74224;SHT31;62585;49.706;18.216;2023-05-10T02:37:43;8.88;64.18
74224;SHT31;62585;49.706;18.216;2023-05-10T02:40:11;8.92;63.36
74224;SHT31;62585;49.706;18.216;2023-05-10T02:42:38;8.92;63.79
74224;SHT31;62585;49.706;18.216;2023-05-10T02:45:11;8.95;63.96
74224;SHT31;62585;49.706;18.216;2023-05-10T02:47:37;8.82;64.50
74224;SHT31;62585;49.706;18.216;2023-05-10T02:50:04;8.72;65.36
74224;SHT31;62585;49.706;18.216;2023-05-10T02:52:38;8.72;65.36
74224;SHT31;62585;49.706;18.216;2023-05-10T02:55:05;8.65;65.54
74224;SHT31;62585;49.706;18.216;2023-05-10T02:57:34;8.72;65.36
74224;SHT31;62585;49.706;18.216;2023-05-10T03:00:04;8.78;64.36
74224;SHT31;62585;49.706;18.216;2023-05-10T03:02:30;8.80;65.39
74224;SHT31;62585;49.706;18.216;2023-05-10T03:04:56;8.88;65.25
74224;SHT31;62585;49.706;18.216;2023-05-10T03:07:22;8.88;67.24
74224;SHT31;62585;49.706;18.216;2023-05-10T03:09:49;8.84;67.03
74224;SHT31;62585;49.706;18.216;2023-05-10T03:12:57;9.01;64.32
74224;SHT31;62585;49.706;18.216;2023-05-10T03:18:12;8.84;65.38
74224;SHT31;62585;49.706;18.216;2023-05-10T03:20:48;8.88;65.37
74224;SHT31;62585;49.706;18.216;2023-05-10T03:25:44;8.89;65.42
74224;SHT31;62585;49.706;18.216;2023-05-10T03:28:14;8.92;65.21
74224;SHT31;62585;49.706;18.216;2023-05-10T03:30:41;8.95;65.39
74224;SHT31;62585;49.706;18.216;2023-05-10T03:33:08;8.97;65.66
74224;SHT31;62585;49.706;18.216;2023-05-10T03:35:34;8.88;66.12
74224;SHT31;62585;49.706;18.216;2023-05-10T03:38:00;8.88;65.84
74224;SHT31;62585;49.706;18.216;2023-05-10T03:40:26;8.92;66.08
74224;SHT31;62585;49.706;18.216;2023-05-10T03:42:55;8.89;66.18
74224;SHT31;62585;49.706;18.216;2023-05-10T03:45:21;8.91;65.93
74224;SHT31;62585;49.706;18.216;2023-05-10T03:47:46;9.08;65.19
74224;SHT31;62585;49.706;18.216;2023-05-10T03:50:12;9.04;65.33
74224;SHT31;62585;49.706;18.216;2023-05-10T03:52:38;9.01;65.75
74224;SHT31;62585;49.706;18.216;2023-05-10T03:55:05;8.99;65.69
74224;SHT31;62585;49.706;18.216;2023-05-10T03:57:31;9.07;65.65
74224;SHT31;62585;49.706;18.216;2023-05-10T03:59:57;9.19;65.06
74224;SHT31;62585;49.706;18.216;2023-05-10T04:02:23;9.26;64.92
74224;SHT31;62585;49.706;18.216;2023-05-10T04:04:49;9.23;65.52
74224;SHT31;62585;49.706;18.216;2023-05-10T04:07:18;9.30;65.09
74224;SHT31;62585;49.706;18.216;2023-05-10T04:09:45;9.37;65.49
74224;SHT31;62585;49.706;18.216;2023-05-10T04:12:11;9.39;65.51
74224;SHT31;62585;49.706;18.216;2023-05-10T04:14:37;9.54;64.62
74224;SHT31;62585;49.706;18.216;2023-05-10T04:17:02;9.75;64.03
74224;SHT31;62585;49.706;18.216;2023-05-10T04:19:29;9.81;64.32
74224;SHT31;62585;49.706;18.216;2023-05-10T04:21:55;9.87;63.28
74224;SHT31;62585;49.706;18.216;2023-05-10T04:24:21;9.97;62.38
74224;SHT31;62585;49.706;18.216;2023-05-10T04:26:47;10.01;63.74
74224;SHT31;62585;49.706;18.216;2023-05-10T04:29:13;10.06;63.66
74224;SHT31;62585;49.706;18.216;2023-05-10T04:31:38;10.11;64.25
74224;SHT31;62585;49.706;18.216;2023-05-10T04:34:04;10.12;63.31
74224;SHT31;62585;49.706;18.216;2023-05-10T04:36:30;10.22;62.95
74224;SHT31;62585;49.706;18.216;2023-05-10T04:38:58;10.33;62.00
74224;SHT31;62585;49.706;18.216;2023-05-10T04:41:23;10.48;62.94
74224;SHT31;62585;49.706;18.216;2023-05-10T04:43:50;10.60;60.94
74224;SHT31;62585;49.706;18.216;2023-05-10T04:46:16;10.73;60.89
74224;SHT31;62585;49.706;18.216;2023-05-10T04:48:42;10.73;61.43
74224;SHT31;62585;49.706;18.216;2023-05-10T04:51:08;10.85;60.69
74224;SHT31;62585;49.706;18.216;2023-05-10T04:53:34;10.97;60.29
74224;SHT31;62585;49.706;18.216;2023-05-10T04:56:00;11.06;59.41
74224;SHT31;62585;49.706;18.216;2023-05-10T04:58:26;11.15;59.53
74224;SHT31;62585;49.706;18.216;2023-05-10T05:00:51;11.17;58.87
74224;SHT31;62585;49.706;18.216;2023-05-10T05:03:17;11.34;59.26
74224;SHT31;62585;49.706;18.216;2023-05-10T05:05:43;11.35;60.37
74224;SHT31;62585;49.706;18.216;2023-05-10T05:08:10;11.39;59.60
74224;SHT31;62585;49.706;18.216;2023-05-10T05:10:35;11.51;59.52
74224;SHT31;62585;49.706;18.216;2023-05-10T05:13:01;11.55;59.89
74224;SHT31;62585;49.706;18.216;2023-05-10T05:15:27;11.62;58.32
74224;SHT31;62585;49.706;18.216;2023-05-10T05:17:53;11.75;59.76
74224;SHT31;62585;49.706;18.216;2023-05-10T05:20:19;11.80;58.95
74224;SHT31;62585;49.706;18.216;2023-05-10T05:22:44;11.90;59.76
74224;SHT31;62585;49.706;18.216;2023-05-10T05:25:10;12.01;58.75
74224;SHT31;62585;49.706;18.216;2023-05-10T05:27:37;12.17;59.80
74224;SHT31;62585;49.706;18.216;2023-05-10T05:30:03;12.25;56.54
74224;SHT31;62585;49.706;18.216;2023-05-10T05:32:30;12.31;58.45
74224;SHT31;62585;49.706;18.216;2023-05-10T05:34:55;12.38;57.96
74224;SHT31;62585;49.706;18.216;2023-05-10T05:37:21;12.46;56.31
74224;SHT31;62585;49.706;18.216;2023-05-10T05:39:48;12.62;57.83
74224;SHT31;62585;49.706;18.216;2023-05-10T05:42:14;12.68;56.55
74224;SHT31;62585;49.706;18.216;2023-05-10T05:44:41;12.80;57.02
74224;SHT31;62585;49.706;18.216;2023-05-10T05:47:07;12.92;56.09
74224;SHT31;62585;49.706;18.216;2023-05-10T05:49:33;12.96;56.41
74224;SHT31;62585;49.706;18.216;2023-05-10T05:52:00;13.04;55.88
74224;SHT31;62585;49.706;18.216;2023-05-10T05:54:26;13.23;55.39
74224;SHT31;62585;49.706;18.216;2023-05-10T05:56:59;13.28;54.55
74224;SHT31;62585;49.706;18.216;2023-05-10T05:59:25;13.45;55.53
74224;SHT31;62585;49.706;18.216;2023-05-10T06:01:51;13.51;54.77
74224;SHT31;62585;49.706;18.216;2023-05-10T06:04:18;13.71;57.66
74224;SHT31;62585;49.706;18.216;2023-05-10T06:06:44;13.69;54.43
74224;SHT31;62585;49.706;18.216;2023-05-10T06:09:10;13.79;55.31
74224;SHT31;62585;49.706;18.216;2023-05-10T06:11:36;13.89;54.87
74224;SHT31;62585;49.706;18.216;2023-05-10T06:14:03;14.03;54.90
74224;SHT31;62585;49.706;18.216;2023-05-10T06:16:30;14.05;55.25
74224;SHT31;62585;49.706;18.216;2023-05-10T06:18:56;14.13;54.26
74224;SHT31;62585;49.706;18.216;2023-05-10T06:21:22;14.23;54.79
74224;SHT31;62585;49.706;18.216;2023-05-10T06:23:48;14.23;54.77
74224;SHT31;62585;49.706;18.216;2023-05-10T06:26:13;14.52;55.02
74224;SHT31;62585;49.706;18.216;2023-05-10T06:28:39;14.71;54.12
74224;SHT31;62585;49.706;18.216;2023-05-10T06:31:06;14.75;53.37
74224;SHT31;62585;49.706;18.216;2023-05-10T06:33:32;14.79;54.34
74224;SHT31;62585;49.706;18.216;2023-05-10T06:35:59;14.87;53.69
74224;SHT31;62585;49.706;18.216;2023-05-10T06:38:24;14.96;53.50
74224;SHT31;62585;49.706;18.216;2023-05-10T06:40:50;15.12;54.09
74224;SHT31;62585;49.706;18.216;2023-05-10T06:43:16;15.16;53.55
74224;SHT31;62585;49.706;18.216;2023-05-10T06:45:42;15.18;54.46
74224;SHT31;62585;49.706;18.216;2023-05-10T06:48:08;15.20;52.63
74224;SHT31;62585;49.706;18.216;2023-05-10T06:50:34;15.32;53.99
74224;SHT31;62585;49.706;18.216;2023-05-10T06:53:00;15.47;54.42
74224;SHT31;62585;49.706;18.216;2023-05-10T06:55:27;15.66;53.41
74224;SHT31;62585;49.706;18.216;2023-05-10T06:57:53;15.67;53.80
74224;SHT31;62585;49.706;18.216;2023-05-10T07:00:19;15.60;51.43
74224;SHT31;62585;49.706;18.216;2023-05-10T07:02:46;15.64;51.54
74224;SHT31;62585;49.706;18.216;2023-05-10T07:05:12;15.70;52.88
74224;SHT31;62585;49.706;18.216;2023-05-10T07:07:38;15.84;52.05
74224;SHT31;62585;49.706;18.216;2023-05-10T07:10:05;16.09;53.25
74224;SHT31;62585;49.706;18.216;2023-05-10T07:12:31;16.29;53.21
74224;SHT31;62585;49.706;18.216;2023-05-10T07:14:57;16.36;51.88
74224;SHT31;62585;49.706;18.216;2023-05-10T07:17:22;16.34;51.21
74224;SHT31;62585;49.706;18.216;2023-05-10T07:19:48;16.60;52.36
74224;SHT31;62585;49.706;18.216;2023-05-10T07:22:15;16.63;50.84
74224;SHT31;62585;49.706;18.216;2023-05-10T07:24:40;16.34;49.66
74224;SHT31;62585;49.706;18.216;2023-05-10T07:27:06;16.34;51.84
74224;SHT31;62585;49.706;18.216;2023-05-10T07:29:32;16.38;49.69
74224;SHT31;62585;49.706;18.216;2023-05-10T07:31:58;16.38;50.54
74224;SHT31;62585;49.706;18.216;2023-05-10T07:34:24;16.36;51.40
74224;SHT31;62585;49.706;18.216;2023-05-10T07:36:49;16.52;50.25
74224;SHT31;62585;49.706;18.216;2023-05-10T07:39:15;16.52;49.54
74224;SHT31;62585;49.706;18.216;2023-05-10T07:41:42;16.77;51.00
74224;SHT31;62585;49.706;18.216;2023-05-10T07:44:07;16.88;48.37
74224;SHT31;62585;49.706;18.216;2023-05-10T07:46:33;16.92;49.60
74224;SHT31;62585;49.706;18.216;2023-05-10T07:48:59;16.94;46.47
74224;SHT31;62585;49.706;18.216;2023-05-10T07:51:24;17.25;48.71
74224;SHT31;62585;49.706;18.216;2023-05-10T07:53:50;17.28;46.28
74224;SHT31;62585;49.706;18.216;2023-05-10T07:58:51;17.11;48.09
74224;SHT31;62585;49.706;18.216;2023-05-10T08:01:17;17.49;48.12
74224;SHT31;62585;49.706;18.216;2023-05-10T08:03:43;17.50;46.38
74224;SHT31;62585;49.706;18.216;2023-05-10T08:06:09;17.39;47.62
74224;SHT31;62585;49.706;18.216;2023-05-10T08:08:35;17.19;48.00
74224;SHT31;62585;49.706;18.216;2023-05-10T08:11:00;17.06;47.13
74224;SHT31;62585;49.706;18.216;2023-05-10T08:13:26;17.40;49.50
74224;SHT31;62585;49.706;18.216;2023-05-10T08:15:52;17.48;48.28
74224;SHT31;62585;49.706;18.216;2023-05-10T08:18:19;17.57;46.36
74224;SHT31;62585;49.706;18.216;2023-05-10T08:20:44;17.32;48.38
74224;SHT31;62585;49.706;18.216;2023-05-10T08:23:12;17.70;48.80
74224;SHT31;62585;49.706;18.216;2023-05-10T08:25:38;17.29;47.58
74224;SHT31;62585;49.706;18.216;2023-05-10T08:28:04;16.91;47.90
74224;SHT31;62585;49.706;18.216;2023-05-10T08:30:30;16.98;47.25
74224;SHT31;62585;49.706;18.216;2023-05-10T08:32:56;17.11;48.84
74224;SHT31;62585;49.706;18.216;2023-05-10T08:35:21;17.32;48.32
74224;SHT31;62585;49.706;18.216;2023-05-10T08:37:47;17.39;47.61
74224;SHT31;62585;49.706;18.216;2023-05-10T08:40:14;17.31;47.05
74224;SHT31;62585;49.706;18.216;2023-05-10T08:42:47;17.55;47.32
74224;SHT31;62585;49.706;18.216;2023-05-10T08:45:15;17.52;48.69
74224;SHT31;62585;49.706;18.216;2023-05-10T08:47:42;17.62;46.20
74224;SHT31;62585;49.706;18.216;2023-05-10T08:50:08;17.55;47.76
74224;SHT31;62585;49.706;18.216;2023-05-10T08:52:37;17.48;46.87
74224;SHT31;62585;49.706;18.216;2023-05-10T08:55:07;17.45;48.28
74224;SHT31;62585;49.706;18.216;2023-05-10T08:57:33;17.36;47.12
74224;SHT31;62585;49.706;18.216;2023-05-10T09:00:00;17.48;46.89
74224;SHT31;62585;49.706;18.216;2023-05-10T09:02:26;17.40;47.03
74224;SHT31;62585;49.706;18.216;2023-05-10T09:04:52;17.52;48.97
74224;SHT31;62585;49.706;18.216;2023-05-10T09:07:19;17.42;48.20
74224;SHT31;62585;49.706;18.216;2023-05-10T09:09:45;17.36;48.57
74224;SHT31;62585;49.706;18.216;2023-05-10T09:12:12;17.10;47.21
74224;SHT31;62585;49.706;18.216;2023-05-10T09:14:38;17.39;46.78
74224;SHT31;62585;49.706;18.216;2023-05-10T09:17:05;17.43;47.27
74224;SHT31;62585;49.706;18.216;2023-05-10T09:19:30;17.67;47.38
74224;SHT31;62585;49.706;18.216;2023-05-10T09:21:56;17.65;46.81
74224;SHT31;62585;49.706;18.216;2023-05-10T09:24:25;17.50;45.91
74224;SHT31;62585;49.706;18.216;2023-05-10T09:26:52;17.34;47.31
74224;SHT31;62585;49.706;18.216;2023-05-10T09:29:18;17.18;46.78
74224;SHT31;62585;49.706;18.216;2023-05-10T09:31:48;17.27;46.89
74224;SHT31;62585;49.706;18.216;2023-05-10T09:34:21;17.77;45.26
74224;SHT31;62585;49.706;18.216;2023-05-10T09:36:56;17.66;45.66
74224;SHT31;62585;49.706;18.216;2023-05-10T09:39:35;17.38;45.71
74224;SHT31;62585;49.706;18.216;2023-05-10T09:42:04;17.11;46.15
74224;SHT31;62585;49.706;18.216;2023-05-10T09:44:31;17.50;46.35
74224;SHT31;62585;49.706;18.216;2023-05-10T09:46:57;18.11;45.07
74224;SHT31;62585;49.706;18.216;2023-05-10T09:49:22;18.73;45.55
74224;SHT31;62585;49.706;18.216;2023-05-10T09:52:08;18.53;43.92
74224;SHT31;62585;49.706;18.216;2023-05-10T09:54:35;17.94;44.17
74224;SHT31;62585;49.706;18.216;2023-05-10T09:57:01;17.77;44.71
74224;SHT31;62585;49.706;18.216;2023-05-10T09:59:28;17.94;45.68
74224;SHT31;62585;49.706;18.216;2023-05-10T10:01:58;17.96;44.29
74224;SHT31;62585;49.706;18.216;2023-05-10T10:04:25;18.31;44.18
74224;SHT31;62585;49.706;18.216;2023-05-10T10:07:04;18.47;44.90
74224;SHT31;62585;49.706;18.216;2023-05-10T10:09:30;18.37;42.66
74224;SHT31;62585;49.706;18.216;2023-05-10T10:11:57;18.08;43.19
74224;SHT31;62585;49.706;18.216;2023-05-10T10:14:23;18.32;41.58
74224;SHT31;62585;49.706;18.216;2023-05-10T10:16:50;18.38;43.46
74224;SHT31;62585;49.706;18.216;2023-05-10T10:19:18;18.68;41.84
74224;SHT31;62585;49.706;18.216;2023-05-10T10:21:44;18.68;41.61
74224;SHT31;62585;49.706;18.216;2023-05-10T10:24:09;19.00;43.25
74224;SHT31;62585;49.706;18.216;2023-05-10T10:26:36;19.47;44.33
74224;SHT31;62585;49.706;18.216;2023-05-10T10:32:12;19.28;42.89
74224;SHT31;62585;49.706;18.216;2023-05-10T10:34:42;19.64;40.83
74224;SHT31;62585;49.706;18.216;2023-05-10T10:37:08;19.43;39.93
74224;SHT31;62585;49.706;18.216;2023-05-10T10:39:34;19.06;41.35
74224;SHT31;62585;49.706;18.216;2023-05-10T10:42:04;19.00;41.11
74224;SHT31;62585;49.706;18.216;2023-05-10T10:55:06;19.09;40.85
74224;SHT31;62585;49.706;18.216;2023-05-10T10:57:43;20.00;38.68
74224;SHT31;62585;49.706;18.216;2023-05-10T11:00:28;19.87;40.33
74224;SHT31;62585;49.706;18.216;2023-05-10T11:07:56;18.38;41.00
74224;SHT31;62585;49.706;18.216;2023-05-10T11:10:23;18.37;41.77
74224;SHT31;62585;49.706;18.216;2023-05-10T11:12:52;18.32;41.94
74224;SHT31;62585;49.706;18.216;2023-05-10T11:15:19;18.27;41.52
74224;SHT31;62585;49.706;18.216;2023-05-10T11:17:48;18.41;41.23
74224;SHT31;62585;49.706;18.216;2023-05-10T11:20:17;18.58;42.92
74224;SHT31;62585;49.706;18.216;2023-05-10T11:22:52;18.63;42.07
74224;SHT31;62585;49.706;18.216;2023-05-10T11:25:19;18.62;42.06
74224;SHT31;62585;49.706;18.216;2023-05-10T11:27:47;18.77;41.86
74224;SHT31;62585;49.706;18.216;2023-05-10T11:30:14;18.89;43.76
74224;SHT31;62585;49.706;18.216;2023-05-10T11:32:40;18.73;40.99
74224;SHT31;62585;49.706;18.216;2023-05-10T11:35:10;18.63;41.57
74224;SHT31;62585;49.706;18.216;2023-05-10T11:37:38;18.86;44.03
74224;SHT31;62585;49.706;18.216;2023-05-10T11:40:09;19.03;40.91
74224;SHT31;62585;49.706;18.216;2023-05-10T11:42:37;18.99;41.14
74224;SHT31;62585;49.706;18.216;2023-05-10T11:45:02;18.89;41.07
74224;SHT31;62585;49.706;18.216;2023-05-10T11:47:28;18.76;40.99
74224;SHT31;62585;49.706;18.216;2023-05-10T11:49:54;19.00;41.69
74224;SHT31;62585;49.706;18.216;2023-05-10T11:52:20;19.27;41.00
74224;SHT31;62585;49.706;18.216;2023-05-10T11:54:52;19.47;40.53
74224;SHT31;62585;49.706;18.216;2023-05-10T11:57:20;19.48;39.34
74224;SHT31;62585;49.706;18.216;2023-05-10T11:59:46;20.10;39.00
74224;SHT31;62585;49.706;18.216;2023-05-10T12:02:13;20.09;38.44
74224;SHT31;62585;49.706;18.216;2023-05-10T12:04:39;19.90;38.82
74224;SHT31;62585;49.706;18.216;2023-05-10T12:07:05;19.87;38.69
74224;SHT31;62585;49.706;18.216;2023-05-10T12:09:31;19.83;40.10
74224;SHT31;62585;49.706;18.216;2023-05-10T12:11:57;19.87;39.19
74224;SHT31;62585;49.706;18.216;2023-05-10T12:14:22;19.53;38.57
74224;SHT31;62585;49.706;18.216;2023-05-10T12:16:49;19.34;39.52
74224;SHT31;62585;49.706;18.216;2023-05-10T12:19:19;19.23;39.97
74224;SHT31;62585;49.706;18.216;2023-05-10T12:21:48;19.17;39.86
74224;SHT31;62585;49.706;18.216;2023-05-10T12:24:14;19.35;39.59
74224;SHT31;62585;49.706;18.216;2023-05-10T12:26:45;19.35;38.42
74224;SHT31;62585;49.706;18.216;2023-05-10T12:29:15;19.35;39.25
74224;SHT31;62585;49.706;18.216;2023-05-10T12:34:33;19.54;39.07
74224;SHT31;62585;49.706;18.216;2023-05-10T12:37:00;19.65;38.90
74224;SHT31;62585;49.706;18.216;2023-05-10T12:39:26;19.64;39.26
74224;SHT31;62585;49.706;18.216;2023-05-10T12:42:03;19.62;40.26
74224;SHT31;62585;49.706;18.216;2023-05-10T12:44:28;19.47;40.04
74224;SHT31;62585;49.706;18.216;2023-05-10T12:46:54;19.45;39.63
74224;SHT31;62585;49.706;18.216;2023-05-10T12:49:20;19.68;38.53
74224;SHT31;62585;49.706;18.216;2023-05-10T12:51:46;19.76;39.05
74224;SHT31;62585;49.706;18.216;2023-05-10T12:54:11;19.55;39.78
74224;SHT31;62585;49.706;18.216;2023-05-10T12:56:37;19.72;40.02
74224;SHT31;62585;49.706;18.216;2023-05-10T12:59:03;19.81;38.91
74224;SHT31;62585;49.706;18.216;2023-05-10T13:01:29;19.75;39.00
74224;SHT31;62585;49.706;18.216;2023-05-10T13:03:54;19.66;39.13
74224;SHT31;62585;49.706;18.216;2023-05-10T13:06:20;19.64;39.95
74224;SHT31;62585;49.706;18.216;2023-05-10T13:08:46;19.69;41.02
74224;SHT31;62585;49.706;18.216;2023-05-10T13:11:12;19.90;38.06
74224;SHT31;62585;49.706;18.216;2023-05-10T13:13:41;19.95;38.19
74224;SHT31;62585;49.706;18.216;2023-05-10T13:16:07;19.66;37.94
74224;SHT31;62585;49.706;18.216;2023-05-10T13:18:33;19.58;38.82
74224;SHT31;62585;49.706;18.216;2023-05-10T13:20:59;19.57;39.33
74224;SHT31;62585;49.706;18.216;2023-05-10T13:23:24;19.50;38.95
74224;SHT31;62585;49.706;18.216;2023-05-10T13:25:50;19.59;39.04
74224;SHT31;62585;49.706;18.216;2023-05-10T13:28:16;19.69;38.97
74224;SHT31;62585;49.706;18.216;2023-05-10T13:30:42;19.69;37.58
74224;SHT31;62585;49.706;18.216;2023-05-10T13:33:08;19.74;39.27
74224;SHT31;62585;49.706;18.216;2023-05-10T13:35:33;19.59;38.33
74224;SHT31;62585;49.706;18.216;2023-05-10T13:37:59;19.55;39.16
74224;SHT31;62585;49.706;18.216;2023-05-10T13:40:25;19.47;40.04
74224;SHT31;62585;49.706;18.216;2023-05-10T13:42:50;19.21;39.87
74224;SHT31;62585;49.706;18.216;2023-05-10T13:45:16;19.16;40.04
74224;SHT31;62585;49.706;18.216;2023-05-10T13:47:42;19.18;40.61
74224;SHT31;62585;49.706;18.216;2023-05-10T13:50:08;19.14;38.92
74224;SHT31;62585;49.706;18.216;2023-05-10T13:52:34;19.18;40.31
74224;SHT31;62585;49.706;18.216;2023-05-10T13:54:59;19.18;39.89
74224;SHT31;62585;49.706;18.216;2023-05-10T13:57:25;19.23;41.41
74224;SHT31;62585;49.706;18.216;2023-05-10T13:59:51;19.16;40.90
74224;SHT31;62585;49.706;18.216;2023-05-10T14:02:17;18.92;40.98
74224;SHT31;62585;49.706;18.216;2023-05-10T14:04:43;18.79;42.70
74224;SHT31;62585;49.706;18.216;2023-05-10T14:07:09;18.72;42.61
74224;SHT31;62585;49.706;18.216;2023-05-10T14:09:35;18.82;42.42
74224;SHT31;62585;49.706;18.216;2023-05-10T14:12:00;18.90;42.01
74224;SHT31;62585;49.706;18.216;2023-05-10T14:14:26;18.80;42.76
74224;SHT31;62585;49.706;18.216;2023-05-10T14:16:54;18.72;43.11
74224;SHT31;62585;49.706;18.216;2023-05-10T14:19:20;18.69;42.60
74224;SHT31;62585;49.706;18.216;2023-05-10T14:21:45;18.89;43.78
74224;SHT31;62585;49.706;18.216;2023-05-10T14:24:11;19.17;42.27
74224;SHT31;62585;49.706;18.216;2023-05-10T14:26:37;19.39;40.93
74224;SHT31;62585;49.706;18.216;2023-05-10T14:29:03;19.34;39.28
74224;SHT31;62585;49.706;18.216;2023-05-10T14:31:29;19.35;40.25
74224;SHT31;62585;49.706;18.216;2023-05-10T14:33:55;19.53;40.16
74224;SHT31;62585;49.706;18.216;2023-05-10T14:36:22;19.62;40.63
74224;SHT31;62585;49.706;18.216;2023-05-10T14:38:48;19.69;42.75
74224;SHT31;62585;49.706;18.216;2023-05-10T14:41:15;19.74;40.93
74224;SHT31;62585;49.706;18.216;2023-05-10T14:43:43;19.65;40.21
74224;SHT31;62585;49.706;18.216;2023-05-10T14:46:09;19.54;38.15
74224;SHT31;62585;49.706;18.216;2023-05-10T14:48:35;19.54;40.60
74224;SHT31;62585;49.706;18.216;2023-05-10T14:51:01;19.53;39.55
74224;SHT31;62585;49.706;18.216;2023-05-10T14:53:27;19.50;39.21
74224;SHT31;62585;49.706;18.216;2023-05-10T14:55:52;19.43;40.04
74224;SHT31;62585;49.706;18.216;2023-05-10T14:58:18;19.35;40.94
74224;SHT31;62585;49.706;18.216;2023-05-10T15:00:44;19.31;40.90
74224;SHT31;62585;49.706;18.216;2023-05-10T15:03:10;19.18;40.52
74224;SHT31;62585;49.706;18.216;2023-05-10T15:05:35;19.27;42.45
74224;SHT31;62585;49.706;18.216;2023-05-10T15:08:03;19.17;40.87
74224;SHT31;62585;49.706;18.216;2023-05-10T15:10:30;19.11;42.37
74224;SHT31;62585;49.706;18.216;2023-05-10T15:12:56;19.10;42.93
74224;SHT31;62585;49.706;18.216;2023-05-10T15:15:21;19.11;42.50
74224;SHT31;62585;49.706;18.216;2023-05-10T15:17:47;18.99;43.44
74224;SHT31;62585;49.706;18.216;2023-05-10T15:20:13;19.07;43.35
74224;SHT31;62585;49.706;18.216;2023-05-10T15:22:40;19.02;42.84
74224;SHT31;62585;49.706;18.216;2023-05-10T15:25:06;19.06;42.97
74224;SHT31;62585;49.706;18.216;2023-05-10T15:27:32;19.00;40.85
74224;SHT31;62585;49.706;18.216;2023-05-10T15:29:58;19.00;40.73
74224;SHT31;62585;49.706;18.216;2023-05-10T15:32:25;19.06;41.99
74224;SHT31;62585;49.706;18.216;2023-05-10T15:34:50;19.13;41.56
74224;SHT31;62585;49.706;18.216;2023-05-10T15:37:16;19.13;39.91
74224;SHT31;62585;49.706;18.216;2023-05-10T15:39:42;19.02;39.36
74224;SHT31;62585;49.706;18.216;2023-05-10T15:42:08;18.88;41.13
74224;SHT31;62585;49.706;18.216;2023-05-10T15:44:33;18.79;41.01
74224;SHT31;62585;49.706;18.216;2023-05-10T15:47:01;18.76;40.80
74224;SHT31;62585;49.706;18.216;2023-05-10T15:49:28;18.73;41.35
74224;SHT31;62585;49.706;18.216;2023-05-10T15:51:54;18.73;41.16
74224;SHT31;62585;49.706;18.216;2023-05-10T15:54:19;18.80;40.06
74224;SHT31;62585;49.706;18.216;2023-05-10T15:56:45;18.69;40.32
74224;SHT31;62585;49.706;18.216;2023-05-10T15:59:11;18.59;41.40
74224;SHT31;62585;49.706;18.216;2023-05-10T16:01:37;18.56;41.06